createdAt,value
2023-03-20T00:01:55.211Z,9.09
2023-03-20T00:04:57.968Z,9.08
2023-03-20T00:08:00.808Z,9.09
2023-03-20T00:11:03.605Z,9.08
2023-03-20T00:14:10.872Z,9.07
2023-03-20T00:17:20.191Z,9.06
2023-03-20T00:20:23.888Z,9.06
2023-03-20T00:23:27.135Z,9.06
2023-03-20T00:26:35.380Z,9.03
2023-03-20T00:29:39.580Z,8.99
2023-03-20T00:32:42.312Z,8.95
2023-03-20T00:35:45.098Z,8.92
2023-03-20T00:38:47.884Z,8.88
2023-03-20T00:41:53.895Z,8.87
2023-03-20T00:44:59.599Z,8.86
2023-03-20T00:48:03.524Z,8.89
2023-03-20T00:51:06.548Z,8.88
2023-03-20T00:54:15.503Z,8.83
2023-03-20T00:57:22.665Z,8.87
2023-03-20T01:00:47.896Z,8.86
2023-03-20T01:04:02.265Z,8.88
2023-03-20T01:07:08.264Z,8.94
2023-03-20T01:10:17.793Z,8.92
2023-03-20T01:13:23.600Z,8.87
2023-03-20T01:16:33.597Z,8.84
2023-03-20T01:19:36.526Z,8.80
2023-03-20T01:22:39.206Z,8.78
2023-03-20T01:25:42.950Z,8.73
2023-03-20T01:28:46.050Z,8.69
2023-03-20T01:31:53.620Z,8.79
2023-03-20T01:34:56.356Z,8.82
2023-03-20T01:38:01.947Z,8.83
2023-03-20T01:41:08.841Z,8.69
2023-03-20T01:44:20.585Z,8.76
2023-03-20T01:47:27.869Z,8.78
2023-03-20T01:50:32.794Z,8.82
2023-03-20T01:53:35.754Z,8.78
2023-03-20T01:56:42.738Z,8.76
2023-03-20T01:59:50.330Z,8.78
2023-03-20T02:02:54.934Z,8.75
2023-03-20T02:05:58.493Z,8.77
2023-03-20T02:09:01.761Z,8.78
2023-03-20T02:12:05.968Z,8.73
2023-03-20T02:15:10.883Z,8.84
2023-03-20T02:18:15.018Z,8.89
2023-03-20T02:21:54.622Z,8.86
2023-03-20T02:25:35.848Z,8.90
2023-03-20T02:29:01.094Z,8.90
2023-03-20T02:32:42.315Z,8.97
2023-03-20T02:36:13.348Z,8.97
2023-03-20T02:39:56.750Z,8.84
2023-03-20T02:43:09.978Z,8.92
2023-03-20T02:46:21.731Z,8.83
2023-03-20T02:49:50.577Z,8.87
2023-03-20T02:53:01.562Z,8.94
2023-03-20T02:56:13.823Z,8.91
2023-03-20T02:59:26.858Z,8.91
2023-03-20T03:02:36.808Z,8.96
2023-03-20T03:05:44.948Z,9.01
2023-03-20T03:09:00.098Z,8.99
2023-03-20T03:12:12.278Z,8.99
2023-03-20T03:15:27.077Z,8.99
2023-03-20T03:18:32.319Z,9.14
2023-03-20T03:21:38.388Z,9.09
2023-03-20T03:24:45.666Z,8.99
2023-03-20T03:27:55.281Z,9.02
2023-03-20T03:31:00.152Z,9.00
2023-03-20T03:34:03.808Z,8.95
2023-03-20T03:37:13.987Z,8.88
2023-03-20T03:40:22.968Z,8.88
2023-03-20T03:43:32.278Z,8.91
2023-03-20T03:46:41.803Z,8.89
2023-03-20T03:49:51.981Z,8.91
2023-03-20T03:52:59.711Z,8.90
2023-03-20T03:56:05.445Z,8.78
2023-03-20T03:59:15.985Z,8.90
2023-03-20T04:02:21.424Z,8.87
2023-03-20T04:05:48.671Z,8.80
2023-03-20T04:08:51.869Z,8.89
2023-03-20T04:11:57.676Z,8.81
2023-03-20T04:15:05.570Z,8.87
2023-03-20T04:18:08.294Z,8.87
2023-03-20T04:21:13.170Z,8.94
2023-03-20T04:24:18.593Z,8.97
2023-03-20T04:27:35.291Z,8.90
2023-03-20T04:30:39.333Z,8.93
2023-03-20T04:33:42.050Z,8.92
2023-03-20T04:36:45.576Z,8.92
2023-03-20T04:39:48.425Z,8.97
2023-03-20T04:43:04.392Z,9.02
2023-03-20T04:46:09.296Z,9.07
2023-03-20T04:49:12.046Z,9.09
2023-03-20T04:52:16.929Z,9.11
2023-03-20T04:55:19.722Z,9.13
2023-03-20T04:58:31.799Z,9.17
2023-03-20T05:01:38.291Z,9.23
2023-03-20T05:04:42.716Z,9.24
2023-03-20T05:07:45.531Z,9.18
2023-03-20T05:10:48.803Z,9.15
2023-03-20T05:13:56.427Z,9.17
2023-03-20T05:17:01.333Z,9.24
2023-03-20T05:20:05.214Z,9.25
2023-03-20T05:23:11.809Z,9.28
2023-03-20T05:26:14.483Z,9.29
2023-03-20T05:29:17.147Z,9.28
2023-03-20T05:32:24.185Z,9.30
2023-03-20T05:35:26.987Z,9.36
2023-03-20T05:38:34.814Z,9.38
2023-03-20T05:41:37.868Z,9.40
2023-03-20T05:44:41.117Z,9.41
2023-03-20T05:47:47.747Z,9.44
2023-03-20T05:50:50.440Z,9.49
2023-03-20T05:53:53.091Z,9.56
2023-03-20T05:56:58.913Z,9.61
2023-03-20T06:00:01.764Z,9.68
2023-03-20T06:03:07.309Z,9.73
2023-03-20T06:06:10.515Z,9.80
2023-03-20T06:09:14.307Z,9.87
2023-03-20T06:12:17.203Z,9.92
2023-03-20T06:15:25.329Z,9.96
2023-03-20T06:18:29.477Z,10.02
2023-03-20T06:21:32.143Z,10.04
2023-03-20T06:24:35.460Z,10.09
2023-03-20T06:27:41.159Z,10.14
2023-03-20T06:30:46.284Z,10.20
2023-03-20T06:33:50.863Z,10.30
2023-03-20T06:36:53.503Z,10.41
2023-03-20T06:39:56.470Z,10.49
2023-03-20T06:42:59.143Z,10.61
2023-03-20T06:46:02.046Z,10.67
2023-03-20T06:49:06.336Z,10.70
2023-03-20T06:52:09.737Z,10.75
2023-03-20T06:55:19.930Z,10.79
2023-03-20T06:58:25.889Z,10.85
2023-03-20T07:01:34.526Z,10.94
2023-03-20T07:04:38.903Z,11.05
2023-03-20T07:07:42.974Z,11.22
2023-03-20T07:10:51.828Z,11.45
2023-03-20T07:13:54.611Z,11.65
2023-03-20T07:16:57.495Z,11.74
2023-03-20T07:20:02.291Z,11.77
2023-03-20T07:23:08.512Z,11.76
2023-03-20T07:26:11.323Z,11.74
2023-03-20T07:29:17.066Z,11.70
2023-03-20T07:32:20.766Z,11.62
2023-03-20T07:35:25.716Z,11.54
2023-03-20T07:38:33.406Z,11.48
2023-03-20T07:41:41.424Z,11.46
2023-03-20T07:44:44.933Z,11.41
2023-03-20T07:47:50.747Z,11.44
2023-03-20T07:50:54.764Z,11.47
2023-03-20T07:54:09.523Z,11.52
2023-03-20T07:57:14.378Z,11.66
2023-03-20T08:00:23.535Z,11.82
2023-03-20T08:03:28.150Z,12.00
2023-03-20T08:06:44.633Z,12.19
2023-03-20T08:10:01.874Z,12.24
2023-03-20T08:13:10.546Z,12.35
2023-03-20T08:16:13.297Z,12.51
2023-03-20T08:19:15.990Z,12.63
2023-03-20T08:22:20.076Z,12.67
2023-03-20T08:25:25.920Z,12.64
2023-03-20T08:28:45.774Z,12.62
2023-03-20T08:31:49.562Z,12.59
2023-03-20T08:34:55.013Z,12.54
2023-03-20T08:37:59.067Z,12.46
2023-03-20T08:41:09.524Z,12.36
2023-03-20T08:44:12.399Z,12.34
2023-03-20T08:47:15.113Z,12.27
2023-03-20T08:50:18.193Z,12.21
2023-03-20T08:53:22.366Z,12.19
2023-03-20T08:56:25.188Z,12.15
2023-03-20T08:59:31.329Z,12.14
2023-03-20T09:02:34.514Z,12.14
2023-03-20T09:05:37.909Z,12.20
2023-03-20T09:08:46.180Z,12.26
2023-03-20T09:11:48.851Z,12.34
2023-03-20T09:14:51.853Z,12.39
2023-03-20T09:17:54.543Z,12.43
2023-03-20T09:20:57.519Z,12.49
2023-03-20T09:24:04.892Z,12.55
2023-03-20T09:27:07.710Z,12.61
2023-03-20T09:30:14.576Z,12.58
2023-03-20T09:33:18.896Z,12.75
2023-03-20T09:36:33.933Z,12.78
2023-03-20T09:39:38.019Z,12.80
2023-03-20T09:42:47.959Z,12.79
2023-03-20T09:46:03.241Z,12.77
2023-03-20T09:49:27.555Z,12.73
2023-03-20T09:52:33.680Z,12.66
2023-03-20T09:55:40.455Z,12.55
2023-03-20T09:58:45.319Z,12.64
2023-03-20T10:02:00.330Z,12.65
2023-03-20T10:05:05.923Z,12.67
2023-03-20T10:08:16.855Z,12.67
2023-03-20T10:11:56.330Z,12.66
2023-03-20T10:15:09.857Z,12.63
2023-03-20T10:18:27.592Z,12.65
2023-03-20T10:21:43.366Z,12.59
2023-03-20T10:24:49.595Z,12.69
2023-03-20T10:28:06.997Z,12.83
2023-03-20T10:31:23.350Z,12.96
2023-03-20T10:34:42.608Z,13.06
2023-03-20T10:38:00.354Z,13.08
2023-03-20T10:41:05.442Z,13.07
2023-03-20T10:44:17.532Z,13.03
2023-03-20T10:47:29.681Z,12.91
2023-03-20T10:50:41.159Z,12.85
2023-03-20T10:53:49.904Z,12.86
2023-03-20T10:57:23.236Z,12.90
2023-03-20T11:00:34.153Z,12.90
2023-03-20T11:03:39.746Z,12.89
2023-03-20T11:06:51.530Z,12.98
2023-03-20T11:10:10.496Z,13.15
2023-03-20T11:13:26.482Z,13.41
2023-03-20T11:16:36.822Z,13.57
2023-03-20T11:19:43.282Z,13.69
2023-03-20T11:22:49.009Z,13.76
2023-03-20T11:25:54.369Z,13.83
2023-03-20T11:29:01.639Z,13.96
2023-03-20T11:32:08.616Z,14.14
2023-03-20T11:35:19.198Z,14.29
2023-03-20T11:38:30.429Z,14.22
2023-03-20T11:41:40.943Z,14.26
2023-03-20T11:44:58.283Z,14.22
2023-03-20T11:48:04.082Z,14.22
2023-03-20T11:51:10.260Z,14.39
2023-03-20T11:54:18.490Z,14.67
2023-03-20T11:57:33.093Z,14.78
2023-03-20T12:00:40.777Z,14.92
2023-03-20T12:03:52.049Z,14.93
2023-03-20T12:07:03.762Z,15.03
2023-03-20T12:10:11.851Z,15.16
2023-03-20T12:13:26.193Z,15.31
2023-03-20T12:16:30.911Z,15.34
2023-03-20T12:19:36.412Z,15.27
2023-03-20T12:22:44.498Z,15.28
2023-03-20T12:26:01.048Z,15.22
2023-03-20T12:29:08.950Z,15.02
2023-03-20T12:32:18.307Z,15.17
2023-03-20T12:35:27.461Z,15.18
2023-03-20T12:38:32.713Z,15.23
2023-03-20T12:41:43.480Z,15.27
2023-03-20T12:44:54.199Z,15.26
2023-03-20T12:48:10.943Z,15.17
2023-03-20T12:51:24.409Z,15.37
2023-03-20T12:54:41.514Z,15.47
2023-03-20T12:57:56.709Z,15.55
2023-03-20T13:01:05.417Z,15.60
2023-03-20T13:04:28.239Z,15.64
2023-03-20T13:07:45.752Z,15.64
2023-03-20T13:10:57.597Z,15.72
2023-03-20T13:14:06.263Z,15.80
2023-03-20T13:17:19.336Z,15.83
2023-03-20T13:20:27.063Z,15.95
2023-03-20T13:23:38.281Z,15.97
2023-03-20T13:26:46.808Z,15.83
2023-03-20T13:29:57.511Z,15.79
2023-03-20T13:33:10.630Z,15.71
2023-03-20T13:36:25.417Z,15.57
2023-03-20T13:39:34.690Z,15.43
2023-03-20T13:42:41.952Z,15.31
2023-03-20T13:45:44.739Z,15.24
2023-03-20T13:48:48.219Z,15.22
2023-03-20T13:51:57.910Z,15.27
2023-03-20T13:55:23.631Z,15.35
2023-03-20T13:58:40.928Z,15.42
2023-03-20T14:01:56.189Z,15.37
2023-03-20T14:05:05.834Z,15.46
2023-03-20T14:08:33.197Z,15.56
2023-03-20T14:11:39.009Z,15.65
2023-03-20T14:14:44.202Z,15.71
2023-03-20T14:17:49.044Z,15.71
2023-03-20T14:20:58.162Z,15.68
2023-03-20T14:24:05.614Z,15.72
2023-03-20T14:27:29.821Z,15.58
2023-03-20T14:30:44.721Z,15.73
2023-03-20T14:33:58.704Z,15.74
2023-03-20T14:37:04.843Z,15.77
2023-03-20T14:40:20.127Z,15.82
2023-03-20T14:43:56.894Z,15.78
2023-03-20T14:47:06.394Z,15.80
2023-03-20T14:50:19.113Z,15.83
2023-03-20T14:53:24.822Z,15.86
2023-03-20T14:56:32.390Z,15.87
2023-03-20T14:59:36.634Z,15.84
2023-03-20T15:02:39.366Z,15.77
2023-03-20T15:05:42.627Z,15.74
2023-03-20T15:08:48.503Z,15.74
2023-03-20T15:11:52.618Z,15.70
2023-03-20T15:14:58.493Z,15.70
2023-03-20T15:18:05.793Z,15.67
2023-03-20T15:21:16.543Z,15.61
2023-03-20T15:24:23.020Z,15.60
2023-03-20T15:27:29.608Z,15.63
2023-03-20T15:30:37.625Z,15.75
2023-03-20T15:33:43.729Z,15.83
2023-03-20T15:36:46.613Z,15.90
2023-03-20T15:39:52.139Z,15.89
2023-03-20T15:43:02.276Z,15.77
2023-03-20T15:46:18.072Z,15.79
2023-03-20T15:49:22.989Z,15.74
2023-03-20T15:52:30.743Z,15.62
2023-03-20T15:55:33.945Z,15.51
2023-03-20T15:58:37.560Z,15.43
2023-03-20T16:01:41.921Z,15.37
2023-03-20T16:04:47.886Z,15.31
2023-03-20T16:07:50.525Z,15.20
2023-03-20T16:10:57.864Z,15.17
2023-03-20T16:14:00.738Z,15.13
2023-03-20T16:17:06.161Z,15.07
2023-03-20T16:20:15.791Z,15.08
2023-03-20T16:23:33.522Z,15.05
2023-03-20T16:26:46.797Z,15.03
2023-03-20T16:29:52.410Z,14.97
2023-03-20T16:33:00.758Z,14.92
2023-03-20T16:36:05.228Z,14.87
2023-03-20T16:39:10.668Z,14.79
2023-03-20T16:42:24.531Z,14.70
2023-03-20T16:45:31.278Z,14.66
2023-03-20T16:48:37.729Z,14.62
2023-03-20T16:51:43.932Z,14.60
2023-03-20T16:54:48.819Z,14.57
2023-03-20T16:57:55.906Z,14.55
2023-03-20T17:01:07.103Z,14.50
2023-03-20T17:04:19.895Z,14.34
2023-03-20T17:07:30.790Z,14.30
2023-03-20T17:10:33.430Z,14.36
2023-03-20T17:13:36.307Z,14.20
2023-03-20T17:16:40.314Z,14.09
2023-03-20T17:19:44.737Z,13.99
2023-03-20T17:22:47.768Z,13.94
2023-03-20T17:25:51.972Z,13.88
2023-03-20T17:28:55.567Z,13.92
2023-03-20T17:31:58.359Z,13.91
2023-03-20T17:35:02.613Z,13.87
2023-03-20T17:38:05.367Z,13.83
2023-03-20T17:41:13.843Z,13.77
2023-03-20T17:44:16.637Z,13.62
2023-03-20T17:47:20.976Z,13.59
2023-03-20T17:50:27.268Z,13.51
2023-03-20T17:53:31.359Z,13.45
2023-03-20T17:56:34.119Z,13.45
2023-03-20T17:59:37.389Z,13.32
2023-03-20T18:02:40.139Z,13.27
2023-03-20T18:05:44.205Z,13.32
2023-03-20T18:08:46.851Z,13.19
2023-03-20T18:11:49.965Z,13.19
2023-03-20T18:14:52.647Z,13.19
2023-03-20T18:17:55.589Z,13.16
2023-03-20T18:21:00.010Z,13.13
2023-03-20T18:24:03.430Z,13.18
2023-03-20T18:27:06.739Z,13.05
2023-03-20T18:30:16.504Z,12.99
2023-03-20T18:33:19.514Z,12.97
2023-03-20T18:36:25.381Z,12.91
2023-03-20T18:39:28.531Z,12.86
2023-03-20T18:42:31.264Z,12.89
2023-03-20T18:45:38.790Z,12.76
2023-03-20T18:48:42.254Z,12.65
2023-03-20T18:51:47.029Z,12.57
2023-03-20T18:54:49.834Z,12.41
2023-03-20T18:57:52.938Z,12.28
2023-03-20T19:00:57.035Z,12.16
2023-03-20T19:03:59.810Z,12.14
2023-03-20T19:07:03.931Z,11.97
2023-03-20T19:10:07.553Z,12.05
2023-03-20T19:13:13.536Z,11.81
2023-03-20T19:16:23.318Z,11.87
2023-03-20T19:19:26.116Z,11.82
2023-03-20T19:22:30.200Z,11.72
2023-03-20T19:25:33.194Z,11.71
2023-03-20T19:28:40.908Z,11.65
2023-03-20T19:31:44.058Z,11.60
2023-03-20T19:35:35.139Z,11.53
2023-03-20T19:38:14.153Z,11.48
2023-03-20T19:41:16.869Z,11.52
2023-03-20T19:44:19.780Z,11.51
2023-03-20T19:47:22.532Z,11.48
2023-03-20T19:50:30.319Z,11.51
2023-03-20T19:53:34.398Z,11.49
2023-03-20T19:56:37.061Z,11.48
2023-03-20T19:59:43.915Z,11.48
2023-03-20T20:02:47.592Z,11.47
2023-03-20T20:05:51.464Z,11.42
2023-03-20T20:08:55.465Z,11.40
2023-03-20T20:11:58.932Z,11.37
2023-03-20T20:15:01.571Z,11.40
2023-03-20T20:18:04.289Z,11.38
2023-03-20T20:24:32.181Z,11.40
2023-03-20T20:27:35.119Z,11.41
2023-03-20T20:30:39.147Z,11.36
2023-03-20T20:34:02.205Z,11.45
2023-03-20T20:38:09.099Z,11.46
2023-03-20T20:40:47.130Z,11.48
2023-03-20T20:44:14.470Z,11.48
2023-03-20T20:47:13.159Z,11.48
2023-03-20T20:50:18.240Z,11.48
2023-03-20T20:53:21.532Z,11.51
2023-03-20T20:56:26.092Z,11.50
2023-03-20T20:59:43.145Z,11.53
2023-03-20T21:02:45.856Z,11.53
2023-03-20T21:05:48.601Z,11.51
2023-03-20T21:08:51.264Z,11.47
2023-03-20T21:11:55.747Z,11.48
2023-03-20T21:14:58.858Z,11.44
2023-03-20T21:18:02.139Z,11.45
2023-03-20T21:21:05.898Z,11.41
2023-03-20T21:24:30.574Z,11.41
2023-03-20T21:27:38.230Z,11.45
2023-03-20T21:30:54.560Z,11.43
2023-03-20T21:34:05.274Z,11.38
2023-03-20T21:38:15.833Z,11.37
2023-03-20T21:40:32.161Z,11.36
2023-03-20T21:43:36.280Z,11.38
2023-03-20T21:54:24.388Z,11.40
2023-03-20T22:04:26.957Z,11.39
2023-03-20T22:14:41.010Z,11.41
2023-03-20T22:17:51.365Z,11.40
2023-03-20T22:24:51.908Z,11.39
2023-03-20T22:28:02.539Z,11.38
2023-03-20T22:31:34.524Z,11.36
2023-03-20T22:35:30.904Z,11.31
2023-03-20T22:45:01.725Z,11.27
2023-03-20T22:48:06.191Z,11.21
2023-03-20T22:51:10.721Z,11.18
2023-03-20T22:54:13.623Z,11.21
2023-03-20T22:57:16.565Z,11.24
2023-03-20T23:00:19.619Z,11.25
2023-03-20T23:03:39.923Z,11.26
2023-03-20T23:06:45.291Z,11.26
2023-03-20T23:09:54.037Z,11.25
2023-03-20T23:12:56.718Z,11.25
2023-03-20T23:15:59.474Z,11.23
2023-03-20T23:19:02.371Z,11.23
2023-03-20T23:22:06.346Z,11.20
2023-03-20T23:25:20.968Z,11.20
2023-03-20T23:28:37.582Z,11.16
2023-03-20T23:31:40.438Z,11.18
2023-03-20T23:34:45.280Z,11.18
2023-03-20T23:37:58.660Z,11.17
2023-03-20T23:41:01.977Z,11.19
2023-03-20T23:44:05.055Z,11.20
2023-03-20T23:47:17.964Z,11.21
2023-03-20T23:50:42.590Z,11.20
2023-03-20T23:53:47.174Z,11.22
2023-03-20T23:56:52.119Z,11.22
2023-03-20T23:59:54.822Z,11.16
